Time;durP1;ratioP1;P1;durP2;ratioP2;P2;SDS_P1;SDS_P2;PMS_P1;PMS_P2;Temp;Humidity;BMP_temperature;BMP_pressure;BME280_temperature;BME280_humidity;BME280_pressure;Samples;Min_cycle;Max_cycle;Signal;HPM_P1;HPM_P2
2021/11/04 00:20:20;;;;;;;40.00;26.00;;;9.50;99.90;;;;;;5515965;23;20606;-87
2021/11/04 00:22:47;;;;;;;36.97;24.17;;;9.50;99.90;;;;;;4932983;28;21822;-87
2021/11/04 00:25:17;;;;;;;34.80;24.00;;;9.50;99.90;;;;;;4950754;28;20448;-87
2021/11/04 00:27:47;;;;;;;37.40;25.27;;;9.40;99.90;;;;;;4956251;28;20483;-86
2021/11/04 00:30:19;;;;;;;35.07;23.73;;;9.40;99.90;;;;;;4938052;28;20447;-88
2021/11/04 00:32:52;;;;;;;39.00;24.27;;;9.40;99.90;;;;;;4948745;28;20509;-87
2021/11/04 00:35:19;;;;;;;38.67;25.80;;;9.40;99.90;;;;;;4934146;28;20979;-86
2021/11/04 00:37:48;;;;;;;38.40;25.23;;;9.40;99.90;;;;;;4937290;28;21006;-86
2021/11/04 00:40:19;;;;;;;39.03;26.73;;;9.40;99.90;;;;;;4930642;28;20468;-87
2021/11/04 00:42:45;;;;;;;39.47;26.70;;;9.40;99.90;;;;;;4919175;28;20497;-87
2021/11/04 00:45:13;;;;;;;40.37;26.63;;;9.40;99.90;;;;;;4934070;28;20582;-88
2021/11/04 00:47:40;;;;;;;37.23;24.80;;;9.40;99.90;;;;;;4934924;28;20492;-85
2021/11/04 00:50:07;;;;;;;42.70;25.33;;;9.40;99.90;;;;;;4954854;28;20479;-89
2021/11/04 00:52:35;;;;;;;39.10;25.63;;;9.40;99.90;;;;;;4947194;28;20464;-87
2021/11/04 00:55:03;;;;;;;37.07;25.73;;;9.40;99.90;;;;;;4956657;28;20464;-87
2021/11/04 00:57:30;;;;;;;42.03;25.57;;;9.40;99.90;;;;;;4942682;28;20487;-86
2021/11/04 00:59:58;;;;;;;35.10;22.60;;;9.40;99.90;;;;;;4943832;28;20826;-85
2021/11/04 01:02:25;;;;;;;36.53;23.00;;;9.40;99.90;;;;;;4922929;28;20496;-86
2021/11/04 01:04:52;;;;;;;34.43;22.67;;;9.40;99.90;;;;;;4955289;28;20464;-86
2021/11/04 01:07:19;;;;;;;33.50;22.57;;;9.40;99.90;;;;;;4935187;28;20727;-86
2021/11/04 01:09:46;;;;;;;39.40;25.30;;;9.40;99.90;;;;;;4934438;28;20466;-86
2021/11/04 01:12:12;;;;;;;33.10;23.23;;;9.40;99.90;;;;;;4930278;28;20471;-85
2021/11/04 01:14:39;;;;;;;35.17;24.57;;;9.40;99.90;;;;;;4932863;28;20451;-87
2021/11/04 01:17:06;;;;;;;42.23;25.80;;;9.40;99.90;;;;;;4935286;28;20564;-87
2021/11/04 01:19:33;;;;;;;37.93;24.53;;;9.40;99.90;;;;;;4950849;28;20491;-88
2021/11/04 01:22:00;;;;;;;34.40;22.70;;;9.40;99.90;;;;;;4933915;28;20452;-86
2021/11/04 01:24:27;;;;;;;34.43;24.47;;;9.40;99.90;;;;;;4932032;28;20869;-88
2021/11/04 01:34:28;;;;;;;38.93;25.67;;;9.40;99.90;;;;;;4785170;29;21017;-87
2021/11/04 01:36:55;;;;;;;34.60;23.00;;;9.30;99.90;;;;;;4872438;29;20468;-87
2021/11/04 01:39:21;;;;;;;36.43;24.90;;;9.30;99.90;;;;;;4873547;29;20504;-87
2021/11/04 01:41:48;;;;;;;40.20;25.50;;;9.30;99.90;;;;;;4954812;28;20589;-88
2021/11/04 01:44:15;;;;;;;44.00;26.43;;;9.30;99.90;;;;;;4946449;28;20456;-89
2021/11/04 01:46:43;;;;;;;43.47;26.83;;;9.30;99.90;;;;;;4945413;28;20438;-87
2021/11/04 01:49:10;;;;;;;43.30;25.80;;;9.30;99.90;;;;;;4948042;28;21761;-87
2021/11/04 01:51:37;;;;;;;39.63;24.53;;;9.30;99.90;;;;;;4947311;28;20454;-85
2021/11/04 01:54:05;;;;;;;36.47;24.30;;;9.30;99.90;;;;;;4931377;28;21442;-87
2021/11/04 01:56:37;;;;;;;39.30;24.97;;;9.30;99.90;;;;;;4946202;28;20460;-86
2021/11/04 01:59:08;;;;;;;38.90;25.33;;;9.40;99.90;;;;;;4949230;28;20562;-86
2021/11/04 02:01:35;;;;;;;43.80;26.17;;;9.30;99.90;;;;;;4959090;28;20463;-86
2021/11/04 02:04:13;;;;;;;37.93;25.23;;;9.30;99.90;;;;;;4947775;28;20457;-86
2021/11/04 02:06:46;;;;;;;37.37;24.73;;;9.30;99.90;;;;;;4944124;28;20475;-86
2021/11/04 02:09:22;;;;;;;34.77;22.63;;;9.30;99.90;;;;;;4944699;28;20464;-85
2021/11/04 02:12:11;;;;;;;40.97;24.23;;;9.30;99.90;;;;;;4943251;28;20441;-87
2021/11/04 02:14:50;;;;;;;39.83;24.00;;;9.30;99.90;;;;;;4930441;28;20457;-86
2021/11/04 02:17:18;;;;;;;34.43;22.73;;;9.30;99.90;;;;;;4949516;28;20535;-85
2021/11/04 02:19:56;;;;;;;36.87;23.60;;;9.30;99.90;;;;;;4929756;28;20460;-84
2021/11/04 02:22:28;;;;;;;38.10;24.33;;;9.30;99.90;;;;;;4944330;28;20554;-86
2021/11/04 02:25:18;;;;;;;38.40;24.67;;;9.20;99.90;;;;;;4943770;28;22019;-86
2021/11/04 02:27:51;;;;;;;37.40;23.10;;;9.20;99.90;;;;;;4929421;28;20483;-86
2021/11/04 02:30:23;;;;;;;38.07;22.90;;;9.20;99.90;;;;;;4946392;28;20477;-85
2021/11/04 02:32:51;;;;;;;36.23;20.93;;;9.20;99.90;;;;;;4939410;28;20480;-84
2021/11/04 02:35:19;;;;;;;32.27;21.30;;;9.30;99.90;;;;;;4934484;28;20565;-85
2021/11/04 02:37:48;;;;;;;36.70;21.50;;;9.30;99.90;;;;;;4945493;28;21137;-85
2021/11/04 02:40:16;;;;;;;40.33;23.67;;;9.20;99.90;;;;;;4919258;28;21064;-87
2021/11/04 02:42:44;;;;;;;38.37;24.07;;;9.20;99.90;;;;;;4951552;28;20464;-85
2021/11/04 02:45:14;;;;;;;37.70;23.40;;;9.20;99.90;;;;;;4948843;28;21066;-86
2021/11/04 02:47:42;;;;;;;43.33;23.10;;;9.10;99.90;;;;;;4909284;28;20482;-85
2021/11/04 02:50:10;;;;;;;37.97;23.23;;;9.10;99.90;;;;;;4944948;28;21908;-86
2021/11/04 02:52:37;;;;;;;36.43;22.63;;;9.10;99.90;;;;;;4931092;28;20501;-85
2021/11/04 02:55:06;;;;;;;36.73;23.47;;;9.10;99.90;;;;;;4947658;28;20449;-88
2021/11/04 02:58:31;;;;;;;33.33;21.00;;;9.10;99.90;;;;;;4927375;28;20802;-85
2021/11/04 03:01:19;;;;;;;36.07;22.30;;;9.10;99.90;;;;;;4900004;28;20991;-85
2021/11/04 03:03:46;;;;;;;37.37;22.10;;;9.00;99.90;;;;;;4930970;28;20455;-84
2021/11/04 03:08:45;;;;;;;35.23;21.10;;;9.00;99.90;;;;;;5146676;23;20651;-87
2021/11/04 03:11:12;;;;;;;36.00;22.30;;;9.00;99.90;;;;;;4979922;28;20442;-88
2021/11/04 03:13:41;;;;;;;36.40;20.60;;;9.00;99.90;;;;;;4956264;28;20468;-86
2021/11/04 03:16:11;;;;;;;35.50;22.27;;;8.90;99.90;;;;;;4953211;28;20469;-86
2021/11/04 03:18:50;;;;;;;34.30;20.73;;;8.90;99.90;;;;;;4958208;28;20489;-85
2021/11/04 03:21:18;;;;;;;33.23;20.50;;;8.80;99.90;;;;;;4954332;28;20451;-85
2021/11/04 03:23:45;;;;;;;37.27;20.67;;;8.80;99.90;;;;;;4936554;28;20459;-84
2021/11/04 03:28:58;;;;;;;29.57;19.53;;;8.90;99.90;;;;;;4972918;28;20480;-87
2021/11/04 03:31:25;;;;;;;35.57;20.60;;;9.00;99.90;;;;;;4972257;28;20569;-85
2021/11/04 03:34:04;;;;;;;32.97;21.63;;;9.00;99.90;;;;;;4973944;28;21363;-86
2021/11/04 03:36:31;;;;;;;34.20;21.63;;;9.00;99.90;;;;;;4957040;28;20450;-86
2021/11/04 03:38:58;;;;;;;35.27;20.53;;;9.00;99.90;;;;;;4958896;28;20718;-86
2021/11/04 03:41:25;;;;;;;30.33;20.90;;;8.90;99.90;;;;;;4939987;28;20474;-86
2021/11/04 03:44:22;;;;;;;35.67;20.67;;;8.90;99.90;;;;;;4959162;28;20472;-85
2021/11/04 03:46:57;;;;;;;35.53;21.23;;;8.90;99.90;;;;;;4960948;28;21684;-86
2021/11/04 03:49:25;;;;;;;29.90;20.23;;;8.90;99.90;;;;;;4943837;28;20459;-84
2021/11/04 03:51:55;;;;;;;37.37;22.40;;;8.90;99.90;;;;;;4944215;28;20455;-85
2021/11/04 03:54:23;;;;;;;35.43;21.13;;;8.90;99.90;;;;;;4960678;28;20450;-85
2021/11/04 03:56:57;;;;;;;40.07;22.77;;;8.80;99.90;;;;;;4963589;28;20512;-85
2021/11/04 03:59:26;;;;;;;37.80;22.20;;;8.90;99.90;;;;;;4945183;28;20490;-87
2021/11/04 04:01:55;;;;;;;37.53;21.70;;;8.80;99.90;;;;;;4962125;28;20455;-85
2021/11/04 04:04:31;;;;;;;39.77;22.50;;;8.90;99.90;;;;;;4979544;28;20462;-85
2021/11/04 04:06:57;;;;;;;35.33;22.30;;;8.90;99.90;;;;;;4971865;23;20497;-85
2021/11/04 04:09:30;;;;;;;36.50;21.67;;;9.00;99.90;;;;;;4916140;28;20465;-83
2021/11/04 04:11:59;;;;;;;34.53;21.50;;;9.00;99.90;;;;;;4944318;28;20450;-86
2021/11/04 04:14:26;;;;;;;36.63;24.00;;;9.10;99.90;;;;;;4958757;28;20447;-85
2021/11/04 04:17:05;;;;;;;;;;;;;;;;;;;;;
2021/11/04 04:19:33;;;;;;;34.80;20.30;;;9.20;99.90;;;;;;4945638;28;20491;-84
2021/11/04 04:22:04;;;;;;;33.83;20.83;;;9.20;99.90;;;;;;4957881;28;20450;-86
2021/11/04 04:24:40;;;;;;;37.27;22.30;;;9.10;99.90;;;;;;4957241;28;20550;-85
2021/11/04 04:27:11;;;;;;;35.67;21.50;;;9.00;99.90;;;;;;4958091;28;20483;-87
2021/11/04 04:29:47;;;;;;;32.57;20.87;;;9.00;99.90;;;;;;4956678;28;20464;-85
2021/11/04 04:32:20;;;;;;;41.03;20.57;;;8.90;99.90;;;;;;4941029;28;20941;-85
2021/11/04 04:34:46;;;;;;;32.67;19.00;;;8.90;99.90;;;;;;4939164;28;20465;-86
2021/11/04 04:37:13;;;;;;;34.70;19.33;;;8.90;99.90;;;;;;4955389;28;20494;-84
2021/11/04 04:39:43;;;;;;;30.63;19.33;;;8.90;99.90;;;;;;4955065;28;21327;-85
2021/11/04 04:42:13;;;;;;;34.27;20.60;;;8.90;99.90;;;;;;4940739;28;22620;-85
2021/11/04 04:44:42;;;;;;;30.10;18.40;;;8.90;99.90;;;;;;4936590;28;20467;-85
2021/11/04 04:47:09;;;;;;;36.60;20.20;;;9.00;99.90;;;;;;4955112;28;20585;-84
2021/11/04 04:49:35;;;;;;;37.07;19.53;;;9.00;99.90;;;;;;4956008;28;21864;-85
2021/11/04 04:52:09;;;;;;;33.50;18.77;;;9.10;99.90;;;;;;4937071;28;20460;-85
2021/11/04 04:54:36;;;;;;;35.40;19.57;;;9.10;99.90;;;;;;4942469;28;20461;-85
2021/11/04 04:57:02;;;;;;;33.43;20.10;;;9.10;99.90;;;;;;4959332;28;20489;-87
2021/11/04 04:59:30;;;;;;;34.60;19.97;;;9.10;99.90;;;;;;4959675;28;20490;-84
2021/11/04 05:01:57;;;;;;;32.00;21.03;;;9.10;99.90;;;;;;4597755;28;9999998;-85
2021/11/04 05:04:39;;;;;;;37.00;22.77;;;9.30;99.90;;;;;;4937924;28;20208;-86
2021/11/04 05:07:06;;;;;;;37.97;20.20;;;9.10;99.90;;;;;;4946747;23;20501;-85
2021/11/04 05:09:32;;;;;;;37.93;22.20;;;9.00;99.90;;;;;;4922371;28;20464;-86
2021/11/04 05:12:01;;;;;;;38.80;20.83;;;8.90;99.90;;;;;;4924696;28;21928;-86
2021/11/04 05:14:29;;;;;;;39.00;21.60;;;8.90;99.90;;;;;;4925252;28;20507;-85
2021/11/04 05:16:56;;;;;;;36.33;20.20;;;8.90;99.90;;;;;;4930178;28;20520;-85
2021/11/04 05:19:24;;;;;;;39.20;21.67;;;8.80;99.90;;;;;;4922589;28;20492;-86
2021/11/04 05:21:53;;;;;;;36.53;20.87;;;8.80;99.90;;;;;;4921746;28;21140;-87
2021/11/04 05:24:20;;;;;;;33.70;20.17;;;8.90;99.90;;;;;;4921373;28;21603;-86
2021/11/04 05:26:48;;;;;;;30.83;19.57;;;8.80;99.90;;;;;;4918778;28;20472;-87
2021/11/04 05:29:30;;;;;;;37.73;20.43;;;8.80;99.90;;;;;;4916542;28;20478;-85
2021/11/04 05:32:07;;;;;;;32.83;19.60;;;8.80;99.90;;;;;;4936685;28;20521;-88
2021/11/04 05:35:00;;;;;;;35.20;19.40;;;8.80;99.90;;;;;;4926273;28;20454;-87
2021/11/04 05:37:27;;;;;;;32.73;18.50;;;8.70;99.90;;;;;;4938663;28;21208;-87
2021/11/04 05:39:54;;;;;;;35.77;19.20;;;8.70;99.90;;;;;;4924948;28;20500;-85
2021/11/04 05:42:23;;;;;;;37.53;21.20;;;8.80;99.90;;;;;;4956789;28;20516;-86
2021/11/04 05:44:50;;;;;;;38.60;19.83;;;8.80;99.90;;;;;;4961686;28;20757;-86
2021/11/04 05:47:17;;;;;;;39.67;21.20;;;8.80;99.90;;;;;;5055561;23;20489;-89
2021/11/04 05:49:44;;;;;;;38.80;20.33;;;8.80;99.90;;;;;;5000875;28;20459;-86
2021/11/04 05:52:11;;;;;;;39.47;20.30;;;8.70;99.90;;;;;;4992552;28;20563;-85
2021/11/04 05:54:40;;;;;;;39.00;21.00;;;8.70;99.90;;;;;;4962341;28;20461;-87
2021/11/04 05:57:36;;;;;;;38.23;22.43;;;8.90;99.90;;;;;;4967671;28;20617;-84
2021/11/04 06:00:56;;;;;;;37.10;21.87;;;8.80;99.90;;;;;;4967946;28;20560;-86
2021/11/04 06:03:39;;;;;;;42.40;23.50;;;8.80;99.90;;;;;;4966809;28;20502;-84
2021/11/04 06:06:06;;;;;;;43.63;22.77;;;8.80;99.90;;;;;;4945295;28;20524;-85
2021/11/04 06:08:33;;;;;;;44.70;21.17;;;8.90;99.90;;;;;;4948914;28;21273;-83
2021/11/04 06:11:10;;;;;;;40.50;22.50;;;8.80;99.90;;;;;;4945853;28;20463;-86
2021/11/04 06:13:36;;;;;;;48.30;24.40;;;8.70;99.90;;;;;;4950976;28;20462;-84
2021/11/04 06:16:04;;;;;;;40.47;21.57;;;8.70;99.90;;;;;;4949836;28;20477;-85
2021/11/04 06:18:54;;;;;;;42.00;21.83;;;8.70;99.90;;;;;;4950955;28;20529;-83
2021/11/04 06:21:27;;;;;;;45.63;25.63;;;8.70;99.90;;;;;;4926552;28;20995;-85
2021/11/04 06:23:54;;;;;;;46.00;24.13;;;8.80;99.90;;;;;;4941252;28;20486;-86
2021/11/04 06:26:21;;;;;;;47.53;25.73;;;8.70;99.90;;;;;;4941005;28;20460;-83
2021/11/04 06:28:47;;;;;;;43.60;23.93;;;8.70;99.90;;;;;;4959319;28;20465;-84
2021/11/04 06:31:14;;;;;;;48.40;23.80;;;8.70;99.90;;;;;;4940218;28;20466;-84
2021/11/04 06:33:41;;;;;;;44.17;23.50;;;8.70;99.90;;;;;;4940837;28;20798;-84
2021/11/04 06:36:09;;;;;;;42.77;23.13;;;8.70;99.90;;;;;;4941566;28;20458;-84
2021/11/04 06:38:36;;;;;;;44.50;25.60;;;8.60;99.90;;;;;;4942141;28;20483;-85
2021/11/04 06:41:04;;;;;;;52.50;24.53;;;8.80;99.90;;;;;;4941684;28;20478;-88
2021/11/04 06:43:37;;;;;;;53.77;24.83;;;8.80;99.90;;;;;;4942343;28;20889;-84
2021/11/04 06:48:51;;;;;;;50.93;26.67;;;8.80;99.90;;;;;;5001167;23;20500;-84
2021/11/04 06:51:21;;;;;;;49.27;25.17;;;8.80;99.90;;;;;;4955062;28;20489;-84
2021/11/04 06:53:56;;;;;;;49.03;28.00;;;8.70;99.90;;;;;;4951475;28;20565;-85
2021/11/04 06:56:23;;;;;;;55.67;27.60;;;8.70;99.90;;;;;;4959028;28;20458;-85
2021/11/04 06:58:52;;;;;;;50.80;26.73;;;8.60;99.90;;;;;;4945021;28;20484;-85
2021/11/04 07:01:21;;;;;;;45.70;26.80;;;8.50;99.90;;;;;;4945424;28;20566;-85
2021/11/04 07:04:17;;;;;;;48.43;27.37;;;8.50;99.90;;;;;;4946941;28;20920;-84
2021/11/04 07:06:46;;;;;;;50.77;26.47;;;8.50;99.90;;;;;;4944126;28;20559;-85
2021/11/04 07:09:13;;;;;;;51.40;27.00;;;8.40;99.90;;;;;;4945174;28;21003;-85
2021/11/04 07:11:42;;;;;;;49.17;27.40;;;8.40;99.90;;;;;;4938897;28;20836;-84
2021/11/04 07:14:10;;;;;;;55.53;28.50;;;8.40;99.90;;;;;;4942303;28;20468;-83
2021/11/04 07:17:12;;;;;;;55.70;28.30;;;8.40;99.90;;;;;;4955110;28;20567;-85
2021/11/04 07:20:00;;;;;;;57.77;29.33;;;8.40;99.90;;;;;;4943931;28;20489;-85
2021/11/04 07:22:54;;;;;;;48.43;28.50;;;8.40;99.90;;;;;;4871212;29;20503;-84
2021/11/04 07:25:23;;;;;;;47.87;25.57;;;8.50;99.90;;;;;;4868991;29;20453;-83
2021/11/04 07:28:05;;;;;;;47.87;26.60;;;8.40;99.90;;;;;;4860388;29;20574;-86
2021/11/04 07:30:32;;;;;;;48.03;27.10;;;8.30;99.90;;;;;;4864523;29;22113;-85
2021/11/04 07:33:03;;;;;;;48.17;26.73;;;8.30;99.90;;;;;;4883694;29;20492;-84
2021/11/04 07:35:37;;;;;;;41.37;24.70;;;8.40;99.90;;;;;;4862509;29;20572;-84
2021/11/04 07:38:07;;;;;;;45.97;24.30;;;8.40;99.90;;;;;;4884459;29;20567;-84
2021/11/04 07:40:38;;;;;;;44.33;23.77;;;8.40;99.90;;;;;;4897350;29;20486;-84
2021/11/04 07:43:19;;;;;;;40.40;21.53;;;8.30;99.90;;;;;;4893336;29;20456;-85
2021/11/04 07:45:46;;;;;;;43.23;25.10;;;8.40;99.90;;;;;;4928940;28;20962;-83
2021/11/04 07:48:20;;;;;;;43.63;25.07;;;8.30;99.90;;;;;;4938660;28;21096;-85
2021/11/04 07:50:49;;;;;;;42.40;22.90;;;8.40;99.90;;;;;;4940772;28;21172;-85
2021/11/04 07:53:17;;;;;;;39.80;22.87;;;8.40;99.90;;;;;;4938539;28;20817;-85
2021/11/04 07:56:13;;;;;;;;;;;;;;;;;;;;;
2021/11/04 07:59:00;;;;;;;43.00;23.43;;;8.40;99.90;;;;;;4956019;28;20498;-86
2021/11/04 08:01:56;;;;;;;42.17;24.47;;;8.30;99.90;;;;;;4963328;28;20539;-86
2021/11/04 08:04:47;;;;;;;41.73;22.53;;;8.30;99.90;;;;;;4880338;29;20508;-85
2021/11/04 08:07:14;;;;;;;44.73;23.40;;;8.30;99.90;;;;;;4864725;29;22199;-84
2021/11/04 08:09:42;;;;;;;38.17;21.40;;;8.30;99.90;;;;;;4923880;28;21050;-85
2021/11/04 08:12:10;;;;;;;43.10;24.10;;;8.30;99.90;;;;;;4942715;28;20870;-85
2021/11/04 08:14:41;;;;;;;39.60;22.67;;;8.20;99.90;;;;;;4942333;28;20474;-86
2021/11/04 08:17:07;;;;;;;43.73;24.13;;;8.30;99.90;;;;;;4955217;28;20484;-86
2021/11/04 08:19:35;;;;;;;42.23;22.37;;;8.20;99.90;;;;;;4943408;28;20489;-85
2021/11/04 08:22:02;;;;;;;42.27;23.97;;;8.20;99.90;;;;;;4956535;28;20454;-85
2021/11/04 08:24:30;;;;;;;39.67;22.80;;;8.20;99.90;;;;;;4939558;28;20542;-84
2021/11/04 08:27:15;;;;;;;38.30;23.13;;;8.20;99.90;;;;;;4955569;28;20467;-85
2021/11/04 08:29:42;;;;;;;40.23;22.37;;;8.30;99.90;;;;;;4942848;28;20456;-87
2021/11/04 08:32:11;;;;;;;44.20;22.50;;;8.30;99.90;;;;;;4955878;28;20470;-86
2021/11/04 08:34:38;;;;;;;38.23;23.17;;;8.30;99.90;;;;;;4943389;28;20463;-85
2021/11/04 08:37:08;;;;;;;42.57;22.57;;;8.40;99.90;;;;;;4943517;28;20563;-83
2021/11/04 08:39:34;;;;;;;32.83;21.00;;;8.40;99.90;;;;;;4947893;28;20501;-85
2021/11/04 08:42:03;;;;;;;39.03;22.00;;;8.40;99.90;;;;;;4944737;28;20465;-84
2021/11/04 08:44:32;;;;;;;42.90;26.80;;;8.40;99.90;;;;;;4943901;28;20470;-86
2021/11/04 08:49:31;;;;;;;35.87;21.50;;;8.50;99.90;;;;;;5113216;27;21268;-84
2021/11/04 08:52:00;;;;;;;38.90;22.03;;;8.60;99.90;;;;;;5115314;27;20538;-85
2021/11/04 08:54:37;;;;;;;45.17;24.63;;;8.60;99.90;;;;;;5102743;27;20450;-84
2021/11/04 08:57:08;;;;;;;39.00;23.30;;;8.60;99.90;;;;;;5097598;27;21259;-87
2021/11/04 08:59:39;;;;;;;40.23;24.13;;;8.60;99.90;;;;;;5078198;27;20456;-83
2021/11/04 09:02:25;;;;;;;;;;;;;;;;;;;;;
2021/11/04 09:04:59;;;;;;;35.93;21.40;;;8.70;99.90;;;;;;5092993;27;20453;-85
2021/11/04 09:07:26;;;;;;;37.33;24.13;;;8.70;99.90;;;;;;5093453;27;20860;-84
2021/11/04 09:09:53;;;;;;;39.13;23.67;;;8.70;99.90;;;;;;5078155;27;20487;-84
2021/11/04 09:12:19;;;;;;;35.27;20.90;;;8.70;99.90;;;;;;5081565;27;20463;-85
2021/11/04 09:14:46;;;;;;;37.40;21.90;;;8.70;99.90;;;;;;5092054;27;20452;-84
2021/11/04 09:17:14;;;;;;;33.90;20.67;;;8.70;99.90;;;;;;5078799;27;20486;-84
2021/11/04 09:19:42;;;;;;;35.90;19.90;;;8.80;99.90;;;;;;5079751;27;21341;-85
2021/11/04 09:22:08;;;;;;;35.93;22.23;;;8.70;99.90;;;;;;5079095;27;20460;-84
2021/11/04 09:24:35;;;;;;;30.93;19.70;;;8.70;99.90;;;;;;5078947;27;20996;-85
2021/11/04 09:27:03;;;;;;;35.30;21.53;;;8.70;99.90;;;;;;5076931;27;20485;-86
2021/11/04 09:29:32;;;;;;;34.70;20.30;;;8.80;99.90;;;;;;5076539;27;20488;-85
2021/11/04 09:32:00;;;;;;;34.50;21.37;;;8.80;99.90;;;;;;5092278;27;20447;-86
2021/11/04 09:34:29;;;;;;;35.27;20.67;;;8.90;99.90;;;;;;5080403;27;20783;-86
2021/11/04 09:36:56;;;;;;;37.43;20.80;;;8.90;99.90;;;;;;5076420;27;20484;-86
2021/11/04 09:39:23;;;;;;;36.80;21.03;;;9.00;99.90;;;;;;5093695;27;20543;-85
2021/11/04 09:41:51;;;;;;;33.93;19.70;;;9.00;99.90;;;;;;5094231;27;20452;-86
2021/11/04 09:44:21;;;;;;;31.83;19.70;;;9.10;99.90;;;;;;5081887;27;20487;-88
2021/11/04 09:46:48;;;;;;;36.23;19.47;;;9.10;99.90;;;;;;5093607;27;20478;-87
2021/11/04 09:49:14;;;;;;;41.70;23.33;;;9.10;99.90;;;;;;5090650;27;22321;-86
2021/11/04 09:51:42;;;;;;;32.43;20.40;;;9.10;99.90;;;;;;5093055;27;20437;-87
2021/11/04 09:54:09;;;;;;;39.73;24.10;;;9.20;99.90;;;;;;5091161;27;20459;-85
2021/11/04 09:56:37;;;;;;;40.03;24.40;;;9.20;99.90;;;;;;5089977;27;20464;-88
2021/11/04 09:59:04;;;;;;;44.00;27.53;;;9.20;99.90;;;;;;5089866;27;20449;-86
2021/11/04 10:01:33;;;;;;;40.43;23.43;;;9.20;99.90;;;;;;5078269;27;20461;-86
2021/11/04 10:04:02;;;;;;;43.57;23.67;;;9.30;99.90;;;;;;5062045;28;20469;-86
2021/11/04 10:06:34;;;;;;;44.00;26.03;;;9.30;99.90;;;;;;5080073;27;20452;-88
2021/11/04 10:09:08;;;;;;;48.37;26.00;;;9.30;99.90;;;;;;5101110;27;20468;-88
2021/11/04 10:11:46;;;;;;;47.63;27.83;;;9.30;99.90;;;;;;5097833;27;20545;-88
2021/11/04 10:14:18;;;;;;;46.50;26.93;;;9.50;99.90;;;;;;5102622;27;20443;-87
2021/11/04 10:16:44;;;;;;;51.77;27.80;;;9.40;99.90;;;;;;5102619;27;20897;-87
2021/11/04 10:19:14;;;;;;;43.00;26.83;;;9.50;99.90;;;;;;5101503;27;20447;-86
2021/11/04 10:21:52;;;;;;;40.60;26.07;;;9.50;99.90;;;;;;5089079;27;20454;-87
2021/11/04 10:24:27;;;;;;;37.73;24.57;;;9.50;99.90;;;;;;5100844;27;20514;-87
2021/11/04 10:26:55;;;;;;;45.17;26.07;;;9.60;99.90;;;;;;5089075;27;20528;-89
2021/11/04 10:29:24;;;;;;;47.13;24.47;;;9.60;99.90;;;;;;5090870;28;20462;-87
2021/11/04 10:32:00;;;;;;;43.80;24.53;;;9.60;99.90;;;;;;5082084;28;20612;-84
2021/11/04 10:34:31;;;;;;;40.97;23.90;;;9.60;99.90;;;;;;5073315;28;20426;-86
2021/11/04 10:37:09;;;;;;;40.90;24.00;;;9.60;99.90;;;;;;5073394;27;20862;-87
2021/11/04 10:39:38;;;;;;;42.20;25.70;;;9.60;99.90;;;;;;5074697;28;20449;-85
2021/11/04 10:42:05;;;;;;;40.20;24.90;;;9.60;99.90;;;;;;5084696;27;20464;-86
2021/11/04 10:44:32;;;;;;;42.23;23.87;;;9.70;99.90;;;;;;5083057;27;20443;-87
2021/11/04 10:46:59;;;;;;;38.20;23.00;;;9.70;99.90;;;;;;5081714;27;20550;-86
2021/11/04 10:49:27;;;;;;;43.40;24.80;;;9.70;99.90;;;;;;5060967;27;20493;-87
2021/11/04 10:52:04;;;;;;;39.90;25.70;;;9.70;99.90;;;;;;5083794;27;20448;-87
2021/11/04 10:54:47;;;;;;;42.60;24.13;;;9.70;99.90;;;;;;5063180;27;20561;-85
2021/11/04 10:57:31;;;;;;;41.13;24.67;;;9.80;99.90;;;;;;5071905;27;20543;-85
2021/11/04 11:00:16;;;;;;;39.80;22.93;;;9.80;99.90;;;;;;5083881;27;20443;-84
2021/11/04 11:02:56;;;;;;;37.00;23.93;;;9.80;99.90;;;;;;4373759;28;10000728;-88
2021/11/04 11:05:38;;;;;;;40.03;23.67;;;9.80;99.90;;;;;;5078484;27;20262;-88
2021/11/04 11:08:09;;;;;;;35.23;23.00;;;9.90;99.90;;;;;;5079175;27;20476;-88
2021/11/04 11:10:48;;;;;;;36.80;23.50;;;10.00;99.90;;;;;;5072348;28;20446;-89
2021/11/04 11:13:22;;;;;;;39.30;23.40;;;10.00;99.90;;;;;;5077057;27;20497;-88
2021/11/04 11:16:01;;;;;;;39.30;25.00;;;10.10;99.90;;;;;;5074560;27;20479;-86
2021/11/04 11:18:29;;;;;;;32.00;19.90;;;10.20;99.90;;;;;;5076807;28;20476;-87
2021/11/04 11:20:57;;;;;;;32.77;19.80;;;10.30;99.90;;;;;;5073393;27;20463;-87
2021/11/04 11:23:26;;;;;;;31.70;18.60;;;10.30;99.90;;;;;;5075580;28;20482;-87
2021/11/04 11:26:09;;;;;;;34.90;20.90;;;10.30;99.90;;;;;;5076192;28;20521;-86
2021/11/04 11:28:50;;;;;;;35.37;21.20;;;10.30;99.90;;;;;;4980266;27;20565;-87
2021/11/04 11:31:19;;;;;;;29.47;19.57;;;10.40;99.90;;;;;;5074669;28;20785;-87
2021/11/04 11:33:49;;;;;;;28.77;19.20;;;10.50;99.90;;;;;;5076449;28;20447;-86
2021/11/04 11:36:21;;;;;;;28.90;18.20;;;10.50;99.90;;;;;;5071009;28;20464;-87
2021/11/04 11:38:58;;;;;;;25.10;18.10;;;10.50;99.90;;;;;;5074848;27;20545;-88
2021/11/04 11:41:48;;;;;;;25.37;17.17;;;10.50;99.90;;;;;;5077122;27;20493;-88
2021/11/04 11:44:36;;;;;;;24.70;16.50;;;10.50;99.90;;;;;;5086156;28;20467;-88
2021/11/04 11:47:09;;;;;;;21.47;15.67;;;10.50;99.90;;;;;;5090208;27;20495;-91
2021/11/04 11:49:40;;;;;;;24.57;16.10;;;10.60;99.90;;;;;;5092856;28;20471;-90
2021/11/04 11:52:27;;;;;;;30.00;18.60;;;10.50;99.90;;;;;;5093700;27;20445;-90
2021/11/04 11:55:06;;;;;;;26.13;16.20;;;10.40;99.90;;;;;;5094089;27;20553;-90
2021/11/04 11:57:36;;;;;;;23.03;15.60;;;10.30;99.90;;;;;;5073541;27;20500;-87
2021/11/04 12:00:10;;;;;;;26.57;17.20;;;10.20;99.90;;;;;;5073053;27;20458;-88
2021/11/04 12:02:52;;;;;;;27.97;17.70;;;10.30;99.90;;;;;;5094207;27;20458;-88
2021/11/04 12:05:21;;;;;;;26.53;17.50;;;10.30;99.90;;;;;;5085747;28;20446;-88
2021/11/04 12:08:38;;;;;;;28.50;18.23;;;10.20;99.90;;;;;;5089870;28;20504;-88
2021/11/04 12:11:07;;;;;;;24.83;18.30;;;10.40;99.90;;;;;;4997090;28;20485;-87
2021/11/04 12:13:47;;;;;;;25.00;17.73;;;10.50;99.90;;;;;;5010162;28;20474;-88
2021/11/04 12:16:23;;;;;;;25.20;19.20;;;10.60;99.90;;;;;;5058686;28;20484;-90
2021/11/04 12:18:59;;;;;;;26.80;18.57;;;10.80;99.90;;;;;;5092874;27;20480;-89
2021/11/04 12:21:34;;;;;;;25.43;17.77;;;10.90;99.90;;;;;;5074807;28;20456;-88
2021/11/04 12:24:09;;;;;;;26.30;19.23;;;11.10;99.90;;;;;;5068788;27;20534;-86
2021/11/04 12:26:40;;;;;;;27.27;19.53;;;11.10;99.90;;;;;;5089828;27;20447;-88
2021/11/04 12:33:04;;;;;;;26.47;18.87;;;11.20;99.90;;;;;;5035071;27;20483;-89
2021/11/04 12:49:51;;;;;;;27.30;19.23;;;11.20;99.90;;;;;;4975750;28;20847;-87
2021/11/04 12:52:44;;;;;;;25.30;19.73;;;11.30;99.90;;;;;;4962219;28;20463;-86
2021/11/04 12:59:31;;;;;;;27.10;20.00;;;11.10;99.90;;;;;;4988199;22;20495;-85
2021/11/04 13:09:39;;;;;;;;;;;;;;;;;;;;;
2021/11/04 13:15:59;;;;;;;20.53;16.40;;;11.20;99.90;;;;;;5025787;28;20460;-86
2021/11/04 13:18:26;;;;;;;19.57;16.00;;;11.10;99.90;;;;;;5386970;22;21042;-86
2021/11/04 13:21:33;;;;;;;22.10;17.67;;;11.10;99.90;;;;;;4964883;28;20461;-86
2021/11/04 13:24:07;;;;;;;22.73;17.60;;;11.20;99.90;;;;;;4956911;28;20929;-86
2021/11/04 13:26:40;;;;;;;21.77;16.80;;;11.10;99.90;;;;;;4977193;28;20446;-85
2021/11/04 13:29:07;;;;;;;22.17;17.30;;;11.20;99.90;;;;;;4976829;28;20489;-86
2021/11/04 13:31:34;;;;;;;22.57;15.40;;;11.20;99.90;;;;;;4977689;28;20463;-85
2021/11/04 13:34:07;;;;;;;21.20;16.20;;;11.30;99.90;;;;;;4977098;28;20457;-87
2021/11/04 13:36:45;;;;;;;23.17;18.00;;;11.20;99.90;;;;;;4965022;28;20490;-87
2021/11/04 13:39:33;;;;;;;20.13;15.43;;;11.10;99.90;;;;;;4967754;28;20474;-87
2021/11/04 13:42:13;;;;;;;24.40;16.67;;;11.00;99.90;;;;;;4967213;28;20463;-87
2021/11/04 13:44:43;;;;;;;20.40;16.23;;;11.00;99.90;;;;;;4966145;28;20467;-88
2021/11/04 13:47:30;;;;;;;21.40;16.37;;;10.90;99.90;;;;;;4974784;28;20483;-86
2021/11/04 13:50:09;;;;;;;24.53;16.80;;;10.80;99.90;;;;;;4967471;28;20494;-86
2021/11/04 13:52:44;;;;;;;20.33;15.70;;;10.80;99.90;;;;;;4975739;28;20458;-86
2021/11/04 13:55:27;;;;;;;23.77;17.73;;;10.80;99.90;;;;;;4964904;28;20960;-86
2021/11/04 13:58:18;;;;;;;19.03;16.63;;;10.70;99.90;;;;;;4960665;28;20483;-87
2021/11/04 14:01:18;;;;;;;23.00;17.10;;;10.70;99.90;;;;;;4967659;28;20937;-86
2021/11/04 14:04:13;;;;;;;17.03;14.00;;;10.70;99.90;;;;;;4956433;28;21883;-86
2021/11/04 14:19:12;;;;;;;20.67;15.23;;;10.70;99.90;;;;;;5001502;28;20563;-84
2021/11/04 14:21:53;;;;;;;21.97;15.37;;;10.70;99.90;;;;;;4980548;28;20451;-85
2021/11/04 14:24:38;;;;;;;15.17;13.50;;;10.60;99.90;;;;;;5006577;28;20465;-87
2021/11/04 14:27:10;;;;;;;19.53;14.70;;;10.70;99.90;;;;;;4982704;28;20851;-86
2021/11/04 14:30:00;;;;;;;18.63;14.67;;;10.60;99.90;;;;;;4986106;28;21029;-86
2021/11/04 14:32:43;;;;;;;13.93;12.40;;;10.60;99.90;;;;;;4977174;28;20449;-88